createdAt,value
2023-04-17T00:01:04.160Z,10.90
2023-04-17T00:03:32.098Z,10.80
2023-04-17T00:05:56.960Z,10.80
2023-04-17T00:08:21.557Z,10.80
2023-04-17T00:10:53.785Z,10.80
2023-04-17T00:13:25.451Z,10.80
2023-04-17T00:15:52.510Z,10.80
2023-04-17T00:18:17.156Z,10.80
2023-04-17T00:20:42.072Z,10.80
2023-04-17T00:23:07.397Z,10.80
2023-04-17T00:25:31.909Z,10.80
2023-04-17T00:27:56.656Z,10.80
2023-04-17T00:30:21.185Z,10.80
2023-04-17T00:32:47.525Z,10.80
2023-04-17T00:35:12.498Z,10.80
2023-04-17T00:37:37.469Z,10.80
2023-04-17T00:40:02.476Z,10.80
2023-04-17T00:42:29.464Z,10.70
2023-04-17T00:44:54.203Z,10.70
2023-04-17T00:47:22.431Z,10.70
2023-04-17T00:49:48.606Z,10.70
2023-04-17T00:52:14.083Z,10.70
2023-04-17T00:54:38.774Z,10.70
2023-04-17T00:57:04.938Z,10.60
2023-04-17T00:59:30.047Z,10.70
2023-04-17T01:01:54.522Z,10.70
2023-04-17T01:04:19.526Z,10.60
2023-04-17T01:06:46.058Z,10.70
2023-04-17T01:09:11.279Z,10.60
2023-04-17T01:11:36.464Z,10.70
2023-04-17T01:14:01.128Z,10.60
2023-04-17T01:16:25.694Z,10.60
2023-04-17T01:18:50.827Z,10.60
2023-04-17T01:21:16.698Z,10.60
2023-04-17T01:23:50.148Z,10.60
2023-04-17T01:26:19.566Z,10.60
2023-04-17T01:28:44.154Z,10.60
2023-04-17T01:31:08.910Z,10.60
2023-04-17T01:33:33.540Z,10.60
2023-04-17T01:35:58.237Z,10.60
2023-04-17T01:38:22.839Z,10.60
2023-04-17T01:40:47.303Z,10.60
2023-04-17T01:43:13.551Z,10.60
2023-04-17T01:45:38.132Z,10.60
2023-04-17T01:48:02.676Z,10.60
2023-04-17T01:50:27.765Z,10.60
2023-04-17T01:52:52.344Z,10.60
2023-04-17T01:55:16.948Z,10.60
2023-04-17T01:57:42.433Z,10.60
2023-04-17T02:00:10.965Z,10.60
2023-04-17T02:02:38.657Z,10.60
2023-04-17T02:05:03.761Z,10.50
2023-04-17T02:07:28.410Z,10.50
2023-04-17T02:09:52.959Z,10.50
2023-04-17T02:12:17.589Z,10.50
2023-04-17T02:14:42.233Z,10.50
2023-04-17T02:17:08.303Z,10.50
2023-04-17T02:19:32.916Z,10.50
2023-04-17T02:22:00.940Z,10.40
2023-04-17T02:24:25.589Z,10.40
2023-04-17T02:26:50.046Z,10.50
2023-04-17T02:29:14.690Z,10.40
2023-04-17T02:31:42.510Z,10.40
2023-04-17T02:34:10.741Z,10.40
2023-04-17T02:36:37.385Z,10.40
2023-04-17T02:39:02.503Z,10.40
2023-04-17T02:41:26.899Z,10.40
2023-04-17T02:43:51.923Z,10.40
2023-04-17T02:46:16.652Z,10.40
2023-04-17T02:48:41.975Z,10.40
2023-04-17T02:51:07.968Z,10.40
2023-04-17T02:53:32.743Z,10.40
2023-04-17T02:55:57.273Z,10.40
2023-04-17T02:58:22.535Z,10.40
2023-04-17T03:00:47.181Z,10.40
2023-04-17T03:03:15.181Z,10.30
2023-04-17T03:05:39.894Z,10.30
2023-04-17T03:08:07.303Z,10.30
2023-04-17T03:10:40.151Z,10.30
2023-04-17T03:13:05.003Z,10.30
2023-04-17T03:15:31.174Z,10.30
2023-04-17T03:17:56.271Z,10.40
2023-04-17T03:20:21.237Z,10.30
2023-04-17T03:22:46.122Z,10.40
2023-04-17T03:25:13.327Z,10.30
2023-04-17T03:27:52.562Z,10.40
2023-04-17T03:30:20.031Z,10.30
2023-04-17T03:32:47.137Z,10.40
2023-04-17T03:35:12.286Z,10.30
2023-04-17T03:37:36.733Z,10.30
2023-04-17T03:40:01.586Z,10.30
2023-04-17T03:42:29.963Z,10.30
2023-04-17T03:44:55.632Z,10.30
2023-04-17T03:47:21.923Z,10.30
2023-04-17T03:49:46.493Z,10.30
2023-04-17T03:52:11.082Z,10.30
2023-04-17T03:54:36.871Z,10.30
2023-04-17T03:57:04.053Z,10.30
2023-04-17T03:59:31.701Z,10.30
2023-04-17T04:01:56.882Z,10.30
2023-04-17T04:04:22.394Z,10.30
2023-04-17T04:06:54.607Z,10.30
2023-04-17T04:09:19.361Z,10.30
2023-04-17T04:11:44.038Z,10.30
2023-04-17T04:14:08.813Z,10.30
2023-04-17T04:16:35.366Z,10.30
2023-04-17T04:19:08.044Z,10.30
2023-04-17T04:21:33.131Z,10.30
2023-04-17T04:23:58.305Z,10.30
2023-04-17T04:26:24.473Z,10.30
2023-04-17T04:28:51.797Z,10.30
2023-04-17T04:31:30.691Z,10.30
2023-04-17T04:34:01.367Z,10.30
2023-04-17T04:36:29.938Z,10.30
2023-04-17T04:39:20.858Z,10.30
2023-04-17T04:41:46.481Z,10.40
2023-04-17T04:44:12.629Z,10.40
2023-04-17T04:46:39.162Z,10.40
2023-04-17T04:49:05.139Z,10.40
2023-04-17T04:51:33.931Z,10.40
2023-04-17T04:54:02.141Z,10.40
2023-04-17T04:56:26.892Z,10.40
2023-04-17T04:58:51.786Z,10.40
2023-04-17T05:01:17.659Z,10.40
2023-04-17T05:03:45.103Z,10.40
2023-04-17T05:06:16.202Z,10.40
2023-04-17T05:08:46.334Z,10.30
2023-04-17T05:11:13.036Z,10.30
2023-04-17T05:13:37.666Z,10.30
2023-04-17T05:16:04.277Z,10.30
2023-04-17T05:18:29.049Z,10.20
2023-04-17T05:20:54.304Z,10.20
2023-04-17T05:23:23.085Z,10.20
2023-04-17T05:25:49.186Z,10.10
2023-04-17T05:28:15.473Z,10.10
2023-04-17T05:30:41.791Z,10.20
2023-04-17T05:33:13.709Z,10.20
2023-04-17T05:35:47.584Z,10.10
2023-04-17T05:38:13.532Z,10.10
2023-04-17T05:40:39.368Z,10.20
2023-04-17T05:43:10.579Z,10.20
2023-04-17T05:45:36.746Z,10.20
2023-04-17T05:48:01.779Z,10.20
2023-04-17T05:50:26.612Z,10.10
2023-04-17T05:52:51.357Z,10.10
2023-04-17T05:55:16.909Z,10.20
2023-04-17T05:57:42.936Z,10.10
2023-04-17T06:00:13.160Z,10.20
2023-04-17T06:02:44.100Z,10.10
2023-04-17T06:05:16.614Z,10.10
2023-04-17T06:07:43.001Z,10.10
2023-04-17T06:10:11.449Z,10.20
2023-04-17T06:12:36.783Z,10.20
2023-04-17T06:15:09.102Z,10.20
2023-04-17T06:17:34.084Z,10.20
2023-04-17T06:19:58.977Z,10.30
2023-04-17T06:22:24.407Z,10.40
2023-04-17T06:24:49.195Z,10.40
2023-04-17T06:27:14.417Z,10.40
2023-04-17T06:29:38.910Z,10.40
2023-04-17T06:32:05.135Z,10.40
2023-04-17T06:34:29.668Z,10.40
2023-04-17T06:36:54.725Z,10.50
2023-04-17T06:39:19.393Z,10.50
2023-04-17T06:41:48.557Z,10.40
2023-04-17T06:44:21.838Z,10.40
2023-04-17T06:46:46.799Z,10.40
2023-04-17T06:49:13.167Z,10.50
2023-04-17T06:51:37.870Z,10.40
2023-04-17T06:54:02.364Z,10.40
2023-04-17T06:56:27.256Z,10.40
2023-04-17T06:58:51.949Z,10.30
2023-04-17T07:01:16.987Z,10.30
2023-04-17T07:03:42.736Z,10.30
2023-04-17T07:06:10.798Z,10.30
2023-04-17T07:08:35.319Z,10.30
2023-04-17T07:11:00.752Z,10.30
2023-04-17T07:13:25.232Z,10.30
2023-04-17T07:15:53.533Z,10.30
2023-04-17T07:18:18.197Z,10.30
2023-04-17T07:20:42.829Z,10.30
2023-04-17T07:23:09.144Z,10.30
2023-04-17T07:25:35.448Z,10.30
2023-04-17T07:28:00.012Z,10.30
2023-04-17T07:30:24.628Z,10.40
2023-04-17T07:32:49.188Z,10.40
2023-04-17T07:35:13.879Z,10.40
2023-04-17T07:37:38.277Z,10.40
2023-04-17T07:40:10.373Z,10.40
2023-04-17T07:42:35.021Z,10.40
2023-04-17T07:44:59.594Z,10.40
2023-04-17T07:47:24.600Z,10.40
2023-04-17T07:49:50.483Z,10.40
2023-04-17T07:52:18.036Z,10.50
2023-04-17T07:54:42.622Z,10.50
2023-04-17T07:57:08.561Z,10.50
2023-04-17T07:59:33.157Z,10.40
2023-04-17T08:01:58.303Z,10.50
2023-04-17T08:04:24.459Z,10.50
2023-04-17T08:06:49.671Z,10.50
2023-04-17T08:09:14.371Z,10.50
2023-04-17T08:11:53.355Z,10.40
2023-04-17T08:14:23.810Z,10.40
2023-04-17T08:16:48.753Z,10.30
2023-04-17T08:19:13.756Z,10.20
2023-04-17T08:21:38.638Z,10.20
2023-04-17T08:24:03.500Z,10.30
2023-04-17T08:26:28.563Z,10.30
2023-04-17T08:28:53.745Z,10.40
2023-04-17T08:31:19.765Z,10.30
2023-04-17T08:33:44.855Z,10.30
2023-04-17T08:36:10.575Z,10.30
2023-04-17T08:38:35.257Z,10.30
2023-04-17T08:41:05.682Z,10.30
2023-04-17T08:43:30.599Z,10.30
2023-04-17T08:45:55.848Z,10.40
2023-04-17T08:48:22.647Z,10.40
2023-04-17T08:50:49.631Z,10.40
2023-04-17T08:53:14.482Z,10.40
2023-04-17T08:55:40.542Z,10.40
2023-04-17T08:58:07.659Z,10.30
2023-04-17T09:00:34.098Z,10.30
2023-04-17T09:03:01.188Z,10.40
2023-04-17T09:05:30.380Z,10.40
2023-04-17T09:08:09.281Z,10.40
2023-04-17T09:10:37.861Z,10.40
2023-04-17T09:13:02.638Z,10.40
2023-04-17T09:15:27.435Z,10.40
2023-04-17T09:17:54.906Z,10.40
2023-04-17T09:20:20.107Z,10.40
2023-04-17T09:22:46.597Z,10.40
2023-04-17T09:25:18.740Z,10.30
2023-04-17T09:27:46.040Z,10.30
2023-04-17T09:30:11.156Z,10.30
2023-04-17T09:32:36.570Z,10.20
2023-04-17T09:35:02.823Z,10.20
2023-04-17T09:37:51.314Z,10.20
2023-04-17T09:40:16.352Z,10.10
2023-04-17T09:42:56.273Z,10.10
2023-04-17T09:45:22.371Z,10.10
2023-04-17T09:47:49.259Z,10.10
2023-04-17T09:50:15.444Z,10.10
2023-04-17T09:52:41.595Z,10.10
2023-04-17T09:55:10.584Z,10.00
2023-04-17T09:57:35.255Z,10.00
2023-04-17T10:00:04.237Z,10.00
2023-04-17T10:02:33.055Z,9.90
2023-04-17T10:04:58.234Z,9.90
2023-04-17T10:07:22.869Z,9.90
2023-04-17T10:09:48.246Z,10.00
2023-04-17T10:12:16.963Z,9.90
2023-04-17T10:14:44.209Z,10.00
2023-04-17T10:17:24.958Z,10.00
2023-04-17T10:19:50.264Z,10.00
2023-04-17T10:22:31.804Z,10.00
2023-04-17T10:25:20.149Z,10.00
2023-04-17T10:27:47.566Z,10.00
2023-04-17T10:30:13.893Z,10.10
2023-04-17T10:32:39.367Z,10.10
2023-04-17T10:35:24.690Z,10.10
2023-04-17T10:38:05.949Z,10.10
2023-04-17T10:40:33.729Z,10.00
2023-04-17T10:43:09.821Z,10.00
2023-04-17T10:45:56.599Z,10.00
2023-04-17T10:48:23.042Z,10.10
2023-04-17T10:50:47.795Z,10.00
2023-04-17T10:53:40.252Z,10.00
2023-04-17T10:56:05.172Z,9.90
2023-04-17T10:58:32.144Z,9.90
2023-04-17T11:00:56.866Z,9.80
2023-04-17T11:03:26.076Z,9.80
2023-04-17T11:05:52.020Z,9.80
2023-04-17T11:08:17.414Z,9.80
2023-04-17T11:10:42.051Z,9.80
2023-04-17T11:13:07.117Z,9.80
2023-04-17T11:15:35.084Z,9.80
2023-04-17T11:18:03.154Z,9.80
2023-04-17T11:20:30.145Z,9.70
2023-04-17T11:22:54.695Z,9.70
2023-04-17T11:25:24.085Z,9.70
2023-04-17T11:27:51.545Z,9.80
2023-04-17T11:30:25.619Z,9.80
2023-04-17T11:32:52.729Z,9.80
2023-04-17T11:35:17.516Z,9.80
2023-04-17T11:38:11.856Z,9.80
2023-04-17T11:40:36.716Z,9.80
2023-04-17T11:43:07.928Z,9.80
2023-04-17T11:45:33.111Z,9.80
2023-04-17T11:47:59.399Z,9.80
2023-04-17T11:50:24.016Z,9.90
2023-04-17T11:52:48.568Z,10.00
2023-04-17T11:55:13.441Z,10.00
2023-04-17T11:57:43.495Z,10.10
2023-04-17T12:00:14.644Z,10.00
2023-04-17T12:02:40.819Z,10.00
2023-04-17T12:05:17.798Z,10.00
2023-04-17T12:07:42.549Z,10.00
2023-04-17T12:10:08.599Z,10.00
2023-04-17T12:12:33.289Z,10.00
2023-04-17T12:14:59.146Z,10.00
2023-04-17T12:17:23.855Z,10.00
2023-04-17T12:19:48.581Z,10.10
2023-04-17T12:22:14.841Z,10.00
2023-04-17T12:24:39.433Z,10.10
2023-04-17T12:27:04.532Z,10.10
2023-04-17T12:29:43.080Z,10.00
2023-04-17T12:32:10.545Z,10.00
2023-04-17T12:34:35.302Z,10.10
2023-04-17T12:36:59.967Z,10.10
2023-04-17T12:39:28.945Z,10.10
2023-04-17T12:41:53.882Z,10.10
2023-04-17T12:44:18.314Z,10.10
2023-04-17T12:46:43.194Z,10.10
2023-04-17T12:49:07.913Z,10.10
2023-04-17T12:51:37.773Z,10.20
2023-04-17T12:54:02.519Z,10.20
2023-04-17T12:56:29.036Z,10.20
2023-04-17T12:58:53.636Z,10.30
2023-04-17T13:01:18.457Z,10.30
2023-04-17T13:03:43.761Z,10.30
2023-04-17T13:06:08.982Z,10.30
2023-04-17T13:08:34.012Z,10.40
2023-04-17T13:11:00.017Z,10.40
2023-04-17T13:13:26.927Z,10.50
2023-04-17T13:15:51.610Z,10.50
2023-04-17T13:18:16.353Z,10.60
2023-04-17T13:20:41.247Z,10.70
2023-04-17T13:23:05.933Z,10.70
2023-04-17T13:25:31.532Z,10.70
2023-04-17T13:27:56.330Z,10.70
2023-04-17T13:30:22.874Z,10.70
2023-04-17T13:32:47.736Z,10.70
2023-04-17T13:35:13.490Z,10.80
2023-04-17T13:37:38.232Z,10.90
2023-04-17T13:40:05.272Z,10.80
2023-04-17T13:42:30.038Z,10.90
2023-04-17T13:44:55.347Z,10.90
2023-04-17T13:47:21.502Z,11.00
2023-04-17T13:49:46.105Z,11.00
2023-04-17T13:52:10.763Z,10.90
2023-04-17T13:54:39.778Z,10.90
2023-04-17T13:57:10.079Z,10.90
2023-04-17T13:59:34.773Z,10.90
2023-04-17T14:02:01.588Z,10.80
2023-04-17T14:04:28.092Z,10.80
2023-04-17T14:06:52.813Z,10.80
2023-04-17T14:09:17.742Z,10.90
2023-04-17T14:11:42.313Z,10.90
2023-04-17T14:14:06.923Z,10.90
2023-04-17T14:16:31.541Z,10.90
2023-04-17T14:18:57.894Z,10.90
2023-04-17T14:21:27.853Z,10.90
2023-04-17T14:23:52.540Z,10.80
2023-04-17T14:26:17.366Z,10.80
2023-04-17T14:28:42.479Z,10.80
2023-04-17T14:31:07.520Z,10.70
2023-04-17T14:33:32.130Z,10.70
2023-04-17T14:35:57.747Z,10.70
2023-04-17T14:38:26.609Z,10.70
2023-04-17T14:40:51.535Z,10.70
2023-04-17T14:43:16.125Z,10.70
2023-04-17T14:45:41.109Z,10.70
2023-04-17T14:48:06.238Z,10.70
2023-04-17T14:50:31.051Z,10.80
2023-04-17T14:52:55.916Z,10.80
2023-04-17T14:55:22.436Z,10.80
2023-04-17T14:57:47.358Z,10.90
2023-04-17T15:00:12.762Z,10.90
2023-04-17T15:02:39.510Z,10.90
2023-04-17T15:05:04.803Z,10.90
2023-04-17T15:07:29.930Z,10.90
2023-04-17T15:09:56.334Z,10.90
2023-04-17T15:12:22.926Z,10.90
2023-04-17T15:14:47.713Z,10.90
2023-04-17T15:17:12.486Z,10.90
2023-04-17T15:19:37.557Z,10.80
2023-04-17T15:22:02.334Z,10.80
2023-04-17T15:24:27.267Z,10.80
2023-04-17T15:26:52.441Z,10.80
2023-04-17T15:29:18.539Z,10.80
2023-04-17T15:31:43.294Z,10.80
2023-04-17T15:34:08.769Z,10.80
2023-04-17T15:36:33.485Z,10.80
2023-04-17T15:38:59.344Z,10.80
2023-04-17T15:41:24.148Z,10.80
2023-04-17T15:43:49.075Z,10.80
2023-04-17T15:46:15.126Z,10.80
2023-04-17T15:48:39.737Z,10.90
2023-04-17T15:51:05.191Z,10.90
2023-04-17T15:53:30.323Z,10.90
2023-04-17T15:55:54.874Z,10.90
2023-04-17T15:58:19.787Z,10.90
2023-04-17T16:00:44.288Z,10.90
2023-04-17T16:03:10.697Z,10.90
2023-04-17T16:05:35.526Z,11.00
2023-04-17T16:08:01.449Z,11.00
2023-04-17T16:10:26.438Z,11.00
2023-04-17T16:12:51.238Z,11.00
2023-04-17T16:15:18.438Z,10.90
2023-04-17T16:17:43.383Z,10.90
2023-04-17T16:20:11.071Z,10.90
2023-04-17T16:22:36.148Z,10.90
2023-04-17T16:25:01.895Z,10.80
2023-04-17T16:27:30.609Z,10.90
2023-04-17T16:29:55.174Z,10.80
2023-04-17T16:32:22.691Z,10.70
2023-04-17T16:34:47.644Z,10.70
2023-04-17T16:37:14.928Z,10.60
2023-04-17T16:39:39.619Z,10.60
2023-04-17T16:42:04.471Z,10.70
2023-04-17T16:44:29.774Z,10.60
2023-04-17T16:47:10.017Z,10.60
2023-04-17T16:49:37.861Z,10.60
2023-04-17T16:52:02.590Z,10.60
2023-04-17T16:54:28.725Z,10.60
2023-04-17T16:56:53.638Z,10.50
2023-04-17T16:59:18.718Z,10.50
2023-04-17T17:01:43.785Z,10.50
2023-04-17T17:04:08.570Z,10.50
2023-04-17T17:06:33.204Z,10.50
2023-04-17T17:08:59.675Z,10.50
2023-04-17T17:11:25.850Z,10.50
2023-04-17T17:13:51.288Z,10.40
2023-04-17T17:16:17.195Z,10.40
2023-04-17T17:18:42.377Z,10.40
2023-04-17T17:21:07.383Z,10.40
2023-04-17T17:23:32.280Z,10.30
2023-04-17T17:25:59.112Z,10.30
2023-04-17T17:28:28.527Z,10.30
2023-04-17T17:31:00.694Z,10.20
2023-04-17T17:33:25.283Z,10.20
2023-04-17T17:35:50.392Z,10.30
2023-04-17T17:38:15.069Z,10.20
2023-04-17T17:40:39.570Z,10.20
2023-04-17T17:43:06.709Z,10.10
2023-04-17T17:45:32.856Z,10.10
2023-04-17T17:48:01.627Z,10.10
2023-04-17T17:50:26.494Z,10.10
2023-04-17T17:52:51.478Z,10.00
2023-04-17T17:55:16.687Z,10.00
2023-04-17T17:57:48.889Z,10.00
2023-04-17T18:00:18.661Z,10.00
2023-04-17T18:02:44.940Z,9.90
2023-04-17T18:05:10.176Z,9.90
2023-04-17T18:07:35.562Z,9.90
2023-04-17T18:10:00.364Z,9.80
2023-04-17T18:12:25.117Z,9.80
2023-04-17T18:14:49.832Z,9.90
2023-04-17T18:17:14.806Z,9.80
2023-04-17T18:19:42.127Z,9.90
2023-04-17T18:22:08.896Z,9.80
2023-04-17T18:24:33.545Z,9.80
2023-04-17T18:26:58.492Z,9.80
2023-04-17T18:29:23.425Z,9.80
2023-04-17T18:31:48.217Z,9.80
2023-04-17T18:34:13.265Z,9.70
2023-04-17T18:36:39.600Z,9.70
2023-04-17T18:39:04.435Z,9.70
2023-04-17T18:41:29.372Z,9.70
2023-04-17T18:43:54.076Z,9.60
2023-04-17T18:46:18.852Z,9.60
2023-04-17T18:48:43.786Z,9.60
2023-04-17T18:51:12.621Z,9.60
2023-04-17T18:53:38.757Z,9.50
2023-04-17T18:56:03.349Z,9.50
2023-04-17T18:58:30.050Z,9.50
2023-04-17T19:00:54.887Z,9.50
2023-04-17T19:03:19.775Z,9.50
2023-04-17T19:05:44.342Z,9.40
2023-04-17T19:08:09.702Z,9.40
2023-04-17T19:10:36.730Z,9.40
2023-04-17T19:13:02.079Z,9.50
2023-04-17T19:15:26.622Z,9.40
2023-04-17T19:17:53.257Z,9.40
2023-04-17T19:20:18.125Z,9.40
2023-04-17T19:22:43.371Z,9.40
2023-04-17T19:25:08.580Z,9.40
2023-04-17T19:27:34.675Z,9.40
2023-04-17T19:29:59.222Z,9.40
2023-04-17T19:32:23.718Z,9.40
2023-04-17T19:34:48.221Z,9.40
2023-04-17T19:37:12.932Z,9.30
2023-04-17T19:39:39.764Z,9.30
2023-04-17T19:42:04.608Z,9.30
2023-04-17T19:44:30.657Z,9.20
2023-04-17T19:46:55.442Z,9.10
2023-04-17T19:49:19.911Z,9.10
2023-04-17T19:51:44.653Z,9.10
2023-04-17T19:54:10.002Z,9.10
2023-04-17T19:56:34.541Z,9.00
2023-04-17T19:59:02.217Z,9.00
2023-04-17T20:01:28.664Z,9.00
2023-04-17T20:03:53.372Z,8.90
2023-04-17T20:06:17.944Z,8.90
2023-04-17T20:08:42.342Z,8.90
2023-04-17T20:11:06.903Z,8.80
2023-04-17T20:13:31.449Z,8.70
2023-04-17T20:15:56.064Z,8.70
2023-04-17T20:18:21.952Z,8.70
2023-04-17T20:20:46.752Z,8.70
2023-04-17T20:23:12.513Z,8.70
2023-04-17T20:25:37.128Z,8.60
2023-04-17T20:28:03.201Z,8.70
2023-04-17T20:30:31.142Z,8.60
2023-04-17T20:32:56.453Z,8.60
2023-04-17T20:35:24.604Z,8.60
2023-04-17T20:37:49.279Z,8.60
2023-04-17T20:40:14.278Z,8.60
2023-04-17T20:42:39.875Z,8.60
2023-04-17T20:45:04.981Z,8.60
2023-04-17T20:47:29.613Z,8.70
2023-04-17T20:49:54.104Z,8.60
2023-04-17T20:52:19.906Z,8.60
2023-04-17T20:54:45.607Z,8.50
2023-04-17T20:57:10.407Z,8.50
2023-04-17T20:59:36.612Z,8.50
2023-04-17T21:02:01.327Z,8.60
2023-04-17T21:04:26.126Z,8.60
2023-04-17T21:06:50.855Z,8.60
2023-04-17T21:09:17.114Z,8.60
2023-04-17T21:11:41.650Z,8.60
2023-04-17T21:14:06.495Z,8.60
2023-04-17T21:16:31.485Z,8.60
2023-04-17T21:18:56.038Z,8.70
2023-04-17T21:21:20.527Z,8.70
2023-04-17T21:23:45.163Z,8.70
2023-04-17T21:26:11.517Z,8.70
2023-04-17T21:28:37.995Z,8.70
2023-04-17T21:31:02.472Z,8.70
2023-04-17T21:33:27.102Z,8.70
2023-04-17T21:35:51.729Z,8.70
2023-04-17T21:38:16.316Z,8.70
2023-04-17T21:40:50.615Z,8.80
2023-04-17T21:43:17.663Z,8.80
2023-04-17T21:45:42.309Z,8.80
2023-04-17T21:48:06.946Z,8.70
2023-04-17T21:50:32.012Z,8.80
2023-04-17T21:52:56.621Z,8.80
2023-04-17T21:55:21.322Z,8.80
2023-04-17T21:57:46.411Z,8.70
2023-04-17T22:00:14.560Z,8.70
2023-04-17T22:02:39.237Z,8.70
2023-04-17T22:05:04.062Z,8.80
2023-04-17T22:07:28.901Z,8.70
2023-04-17T22:09:53.322Z,8.70
2023-04-17T22:12:20.669Z,8.70
2023-04-17T22:14:45.267Z,8.70
2023-04-17T22:17:11.226Z,8.70
2023-04-17T22:19:35.822Z,8.80
2023-04-17T22:22:00.485Z,8.70
2023-04-17T22:24:25.040Z,8.70
2023-04-17T22:26:49.690Z,8.70
2023-04-17T22:29:14.449Z,8.80
2023-04-17T22:31:40.514Z,8.70
2023-04-17T22:34:06.643Z,8.70
2023-04-17T22:36:31.758Z,8.70
2023-04-17T22:38:56.238Z,8.70
2023-04-17T22:41:20.921Z,8.70
2023-04-17T22:43:48.688Z,8.70
2023-04-17T22:46:13.381Z,8.80
2023-04-17T22:48:38.062Z,8.70
2023-04-17T22:51:04.618Z,8.70
2023-04-17T22:53:29.674Z,8.70
2023-04-17T22:56:04.544Z,8.70
2023-04-17T22:58:29.276Z,8.70
2023-04-17T23:00:53.792Z,8.70
2023-04-17T23:03:18.543Z,8.70
2023-04-17T23:05:43.201Z,8.70
2023-04-17T23:08:09.450Z,8.80
2023-04-17T23:10:33.936Z,8.80
2023-04-17T23:12:58.573Z,8.80
2023-04-17T23:15:23.368Z,8.80
2023-04-17T23:17:48.157Z,8.80
2023-04-17T23:20:13.743Z,8.80
2023-04-17T23:22:38.588Z,8.80
2023-04-17T23:25:04.765Z,8.80
2023-04-17T23:27:29.432Z,8.80
2023-04-17T23:29:53.879Z,8.80
2023-04-17T23:32:18.396Z,8.80
2023-04-17T23:34:43.580Z,8.70
2023-04-17T23:37:08.166Z,8.70
2023-04-17T23:39:32.904Z,8.70
2023-04-17T23:42:00.474Z,8.70
2023-04-17T23:44:24.976Z,8.70
2023-04-17T23:46:49.488Z,8.70
2023-04-17T23:49:14.274Z,8.70
2023-04-17T23:51:39.693Z,8.70
2023-04-17T23:54:04.287Z,8.70
2023-04-17T23:56:30.179Z,8.80
2023-04-17T23:58:56.351Z,8.80
